Map

Track Data

SID SEASON NUMBER BASIN SUBBASIN NAME ISO_TIME NATURE LAT LON WMO_WIND WMO_PRES WMO_AGENCY TRACK_TYPE DIST2LAND LANDFALL IFLAG USA_AGENCY USA_ATCF_ID USA_LAT USA_LON USA_RECORD USA_STATUS USA_WIND USA_PRES USA_SSHS USA_R34_NE USA_R34_SE USA_R34_SW USA_R34_NW USA_R50_NE USA_R50_SE USA_R50_SW USA_R50_NW USA_R64_NE USA_R64_SE USA_R64_SW USA_R64_NW USA_POCI USA_ROCI USA_RMW USA_EYE TOKYO_LAT TOKYO_LON TOKYO_GRADE TOKYO_WIND TOKYO_PRES TOKYO_R50_DIR TOKYO_R50_LONG TOKYO_R50_SHORT TOKYO_R30_DIR TOKYO_R30_LONG TOKYO_R30_SHORT TOKYO_LAND CMA_LAT CMA_LON CMA_CAT CMA_WIND CMA_PRES HKO_LAT HKO_LON HKO_CAT HKO_WIND HKO_PRES NEWDELHI_LAT NEWDELHI_LON NEWDELHI_GRADE NEWDELHI_WIND NEWDELHI_PRES NEWDELHI_CI NEWDELHI_DP NEWDELHI_POCI REUNION_LAT REUNION_LON REUNION_TYPE REUNION_WIND REUNION_PRES REUNION_TNUM REUNION_CI REUNION_RMW REUNION_R34_NE REUNION_R34_SE REUNION_R34_SW REUNION_R34_NW REUNION_R50_NE REUNION_R50_SE REUNION_R50_SW REUNION_R50_NW REUNION_R64_NE REUNION_R64_SE REUNION_R64_SW REUNION_R64_NW BOM_LAT BOM_LON BOM_TYPE BOM_WIND BOM_PRES BOM_TNUM BOM_CI BOM_RMW BOM_R34_NE BOM_R34_SE BOM_R34_SW BOM_R34_NW BOM_R50_NE BOM_R50_SE BOM_R50_SW BOM_R50_NW BOM_R64_NE BOM_R64_SE BOM_R64_SW BOM_R64_NW BOM_ROCI BOM_POCI BOM_EYE BOM_POS_METHOD BOM_PRES_METHOD NADI_LAT NADI_LON NADI_CAT NADI_WIND NADI_PRES WELLINGTON_LAT WELLINGTON_LON WELLINGTON_WIND WELLINGTON_PRES DS824_LAT DS824_LON DS824_STAGE DS824_WIND DS824_PRES TD9636_LAT TD9636_LON TD9636_STAGE TD9636_WIND TD9636_PRES TD9635_LAT TD9635_LON TD9635_WIND TD9635_PRES TD9635_ROCI NEUMANN_LAT NEUMANN_LON NEUMANN_CLASS NEUMANN_WIND NEUMANN_PRES MLC_LAT MLC_LON MLC_CLASS MLC_WIND MLC_PRES USA_GUST BOM_GUST BOM_GUST_PER REUNION_GUST REUNION_GUST_PER USA_SEAHGT USA_SEARAD_NE USA_SEARAD_SE USA_SEARAD_SW USA_SEARAD_NW STORM_SPEED STORM_DIR
1940101N08141 1940 20 WP MM NOT_NAMED 1940-04-09 12:00:00 NR 8.00000 140.700 main 1110 1108 __________O___ -1 8.00000 140.700 7 4 291
1940101N08141 1940 20 WP MM NOT_NAMED 1940-04-09 15:00:00 NR 8.07808 140.491 main 1116 1110 __________P___ -1 8.07808 140.491 7 5 289
1940101N08141 1940 20 WP MM NOT_NAMED 1940-04-09 18:00:00 NR 8.15492 140.255 main 1120 1106 __________P___ -1 8.15492 140.255 7 5 286
1940101N08141 1940 20 WP MM NOT_NAMED 1940-04-09 21:00:00 NR 8.22932 139.967 main 1106 1099 __________P___ -1 8.22932 139.967 7 7 283
1940101N08141 1940 20 WP MM NOT_NAMED 1940-04-10 00:00:00 NR 8.30000 139.600 main 1099 1087 __________O___ -1 8.30000 139.600 7 8 279
1940101N08141 1940 20 WP MM NOT_NAMED 1940-04-10 03:00:00 NR 8.36684 139.135 main 1090 1072 __________P___ -1 8.36684 139.135 7 10 278
1940101N08141 1940 20 WP MM NOT_NAMED 1940-04-10 06:00:00 NR 8.43487 138.585 main 1072 1064 __________P___ -1 8.43487 138.585 7 12 277
1940101N08141 1940 20 WP MM NOT_NAMED 1940-04-10 09:00:00 NR 8.51044 137.967 main 1064 1056 __________P___ -1 8.51044 137.967 7 13 277
1940101N08141 1940 20 WP MM NOT_NAMED 1940-04-10 12:00:00 NR 8.60000 137.300 main 1059 1053 __________O___ -1 8.60000 137.300 7 14 279
1940101N08141 1940 20 WP MM NOT_NAMED 1940-04-10 15:00:00 NR 8.72756 136.554 main 1059 1022 __________P___ -1 8.72756 136.554 7 15 280
1940101N08141 1940 20 WP MM NOT_NAMED 1940-04-10 18:00:00 NR 8.86605 135.776 main 1022 947 __________P___ -1 8.86605 135.776 7 15 280
1940101N08141 1940 20 WP MM NOT_NAMED 1940-04-10 21:00:00 NR 8.99638 135.035 main 936 872 __________P___ -1 8.99638 135.035 7 14 280
1940101N08141 1940 20 WP MM NOT_NAMED 1940-04-11 00:00:00 NR 9.10000 134.400 main 872 829 __________O___ -1 9.10000 134.400 7 11 279
1940101N08141 1940 20 WP MM NOT_NAMED 1940-04-11 03:00:00 NR 9.15694 133.960 main 831 788 __________P___ -1 9.15694 133.960 7 8 276
1940101N08141 1940 20 WP MM NOT_NAMED 1940-04-11 06:00:00 NR 9.18645 133.630 main 788 767 __________P___ -1 9.18645 133.630 7 6 274
1940101N08141 1940 20 WP MM NOT_NAMED 1940-04-11 09:00:00 NR 9.19779 133.360 main 767 735 __________P___ -1 9.19779 133.360 7 5 271
1940101N08141 1940 20 WP MM NOT_NAMED 1940-04-11 12:00:00 NR 9.20000 133.100 main 735 702 __________O___ -1 9.20000 133.100 7 6 271
1940101N08141 1940 20 WP MM NOT_NAMED 1940-04-11 15:00:00 NR 9.20304 132.775 main 702 670 __________P___ -1 9.20304 132.775 7 6 270
1940101N08141 1940 20 WP MM NOT_NAMED 1940-04-11 18:00:00 NR 9.19988 132.450 main 660 628 __________P___ -1 9.19988 132.450 7 6 269
1940101N08141 1940 20 WP MM NOT_NAMED 1940-04-11 21:00:00 NR 9.19679 132.125 main 628 596 __________P___ -1 9.19679 132.125 7 6 270
1940101N08141 1940 20 WP MM NOT_NAMED 1940-04-12 00:00:00 NR 9.20000 131.800 main 596 564 __________O___ -1 9.20000 131.800 7 6 272
1940101N08141 1940 20 WP MM NOT_NAMED 1940-04-12 03:00:00 NR 9.21764 131.487 main 564 533 __________P___ -1 9.21764 131.487 7 6 274
1940101N08141 1940 20 WP MM NOT_NAMED 1940-04-12 06:00:00 NR 9.24225 131.173 main 533 506 __________P___ -1 9.24225 131.173 7 6 275
1940101N08141 1940 20 WP MM NOT_NAMED 1940-04-12 09:00:00 NR 9.27074 130.847 main 495 464 __________P___ -1 9.27074 130.847 7 7 275
1940101N08141 1940 20 WP MM NOT_NAMED 1940-04-12 12:00:00 NR 9.30000 130.500 main 464 421 __________O___ -1 9.30000 130.500 7 7 275
1940101N08141 1940 20 WP MM NOT_NAMED 1940-04-12 15:00:00 NR 9.32747 130.126 main 421 388 __________P___ -1 9.32747 130.126 7 8 274
1940101N08141 1940 20 WP MM NOT_NAMED 1940-04-12 18:00:00 NR 9.35298 129.730 main 379 336 __________P___ -1 9.35298 129.730 7 8 274
1940101N08141 1940 20 WP MM NOT_NAMED 1940-04-12 21:00:00 NR 9.37700 129.319 main 336 293 __________P___ -1 9.37700 129.319 7 8 273
1940101N08141 1940 20 WP MM NOT_NAMED 1940-04-13 00:00:00 NR 9.40000 128.900 main 293 __________O___ -1 9.40000 128.900 7 8 273

Digital Typhoon Data and Search

About IBTrACS Database

This database is a web-friendly format of International Best Track Archive for Climate Stewardship (IBTrACS), a global best track data archive curated by NOAA dating back to 1842.

Updated: 2021-10-21